TAM3905 SBRJ-SBSP
Flight info
| Callsign | TAM3905 |
|---|---|
| Flight time | 0h 43m |
| Altitude | 30000 |
| Route | NAXOP UZ45 IBDAL |
| Aircraft | A319/M-SDE3FGHIRWY/LB1 |
Departure
| Time | 2026-05-07 00:36 |
|---|---|
| Airport | Santos Dumont Airport (SBRJ) |
Arrival
| Time | 2026-05-07 01:20 |
|---|---|
| Airport | Congonhas–Deputado Freitas Nobre Airport (SBSP) |
| Time | Latitude | Longitude | Altitude | Speed | Heading |
|---|---|---|---|---|---|
| 2026-05-07 00:16 | -22.91099 | -43.16589 | 27 ft | 0 kts | 266° |
| 2026-05-07 00:30 | -22.91097 | -43.16550 | 27 ft | 2 kts | 282° |
| 2026-05-07 00:30 | -22.91103 | -43.16536 | 27 ft | 2 kts | 305° |
| 2026-05-07 00:30 | -22.91114 | -43.16524 | 27 ft | 2 kts | 329° |
| 2026-05-07 00:30 | -22.91126 | -43.16518 | 27 ft | 0 kts | 349° |
| 2026-05-07 00:31 | -22.91132 | -43.16518 | 27 ft | 1 kts | 353° |
| 2026-05-07 00:31 | -22.91134 | -43.16517 | 27 ft | 0 kts | 353° |
| 2026-05-07 00:31 | -22.91133 | -43.16517 | 27 ft | 0 kts | 353° |
| 2026-05-07 00:33 | -22.91078 | -43.16528 | 27 ft | 18 kts | 349° |
| 2026-05-07 00:34 | -22.90946 | -43.16545 | 27 ft | 19 kts | 356° |
| 2026-05-07 00:34 | -22.90842 | -43.16552 | 28 ft | 14 kts | 359° |
| 2026-05-07 00:34 | -22.90741 | -43.16541 | 28 ft | 14 kts | 359° |
| 2026-05-07 00:34 | -22.90635 | -43.16545 | 28 ft | 15 kts | 357° |
| 2026-05-07 00:35 | -22.90525 | -43.16548 | 28 ft | 12 kts | 14° |
| 2026-05-07 00:35 | -22.90499 | -43.16484 | 28 ft | 10 kts | 86° |
| 2026-05-07 00:35 | -22.90492 | -43.16398 | 28 ft | 11 kts | 79° |
| 2026-05-07 00:35 | -22.90468 | -43.16330 | 28 ft | 8 kts | 119° |
| 2026-05-07 00:36 | -22.90541 | -43.16309 | 27 ft | 18 kts | 180° |
| 2026-05-07 00:36 | -22.90995 | -43.16283 | 26 ft | 111 kts | 177° |
| 2026-05-07 00:36 | -22.91976 | -43.16208 | 336 ft | 156 kts | 167° |
| 2026-05-07 00:36 | -22.92913 | -43.15724 | 1206 ft | 155 kts | 138° |
| 2026-05-07 00:37 | -22.93695 | -43.14927 | 2114 ft | 158 kts | 133° |
| 2026-05-07 00:37 | -22.94532 | -43.14121 | 2707 ft | 171 kts | 137° |
| 2026-05-07 00:37 | -22.95469 | -43.13238 | 3270 ft | 188 kts | 135° |
| 2026-05-07 00:37 | -22.96463 | -43.12223 | 3845 ft | 205 kts | 135° |
| 2026-05-07 00:38 | -22.97553 | -43.11137 | 4436 ft | 223 kts | 136° |
| 2026-05-07 00:38 | -22.98854 | -43.10134 | 5022 ft | 245 kts | 158° |
| 2026-05-07 00:38 | -23.00564 | -43.09998 | 5973 ft | 252 kts | 192° |
| 2026-05-07 00:38 | -23.02124 | -43.10833 | 6872 ft | 260 kts | 217° |
| 2026-05-07 00:39 | -23.03552 | -43.12121 | 7509 ft | 280 kts | 220° |
| 2026-05-07 00:39 | -23.05069 | -43.13538 | 7871 ft | 289 kts | 220° |
| 2026-05-07 00:39 | -23.06611 | -43.14959 | 8087 ft | 292 kts | 219° |
| 2026-05-07 00:39 | -23.08215 | -43.16388 | 8392 ft | 300 kts | 218° |
| 2026-05-07 00:40 | -23.09825 | -43.17791 | 9356 ft | 302 kts | 218° |
| 2026-05-07 00:40 | -23.11467 | -43.19214 | 10396 ft | 302 kts | 218° |
| 2026-05-07 00:40 | -23.13136 | -43.20653 | 11046 ft | 315 kts | 218° |
| 2026-05-07 00:40 | -23.14875 | -43.22156 | 11505 ft | 333 kts | 218° |
| 2026-05-07 00:41 | -23.16739 | -43.23773 | 12076 ft | 345 kts | 218° |
| 2026-05-07 00:41 | -23.18615 | -43.25408 | 12845 ft | 350 kts | 218° |
| 2026-05-07 00:41 | -23.20521 | -43.27069 | 13630 ft | 354 kts | 218° |
| 2026-05-07 00:41 | -23.22437 | -43.28743 | 14401 ft | 357 kts | 218° |
| 2026-05-07 00:42 | -23.24384 | -43.30444 | 15181 ft | 359 kts | 218° |
| 2026-05-07 00:42 | -23.26317 | -43.32136 | 15937 ft | 361 kts | 218° |
| 2026-05-07 00:42 | -23.28269 | -43.33843 | 16661 ft | 363 kts | 218° |
| 2026-05-07 00:42 | -23.30251 | -43.35573 | 17364 ft | 366 kts | 218° |
| 2026-05-07 00:43 | -23.32143 | -43.37394 | 18008 ft | 371 kts | 226° |
| 2026-05-07 00:43 | -23.33638 | -43.39711 | 18626 ft | 377 kts | 242° |
| 2026-05-07 00:43 | -23.34568 | -43.42396 | 19291 ft | 382 kts | 253° |
| 2026-05-07 00:43 | -23.35231 | -43.45167 | 19950 ft | 385 kts | 255° |
| 2026-05-07 00:44 | -23.35874 | -43.48009 | 20602 ft | 388 kts | 255° |
| 2026-05-07 00:44 | -23.36518 | -43.50849 | 21243 ft | 391 kts | 255° |
| 2026-05-07 00:44 | -23.37174 | -43.53715 | 21891 ft | 393 kts | 255° |
| 2026-05-07 00:44 | -23.37836 | -43.56583 | 22534 ft | 395 kts | 255° |
| 2026-05-07 00:45 | -23.38513 | -43.59490 | 23143 ft | 397 kts | 255° |
| 2026-05-07 00:45 | -23.39188 | -43.62396 | 23718 ft | 400 kts | 255° |
| 2026-05-07 00:45 | -23.39866 | -43.65317 | 24294 ft | 402 kts | 255° |
| 2026-05-07 00:45 | -23.40557 | -43.68293 | 24862 ft | 405 kts | 254° |
| 2026-05-07 00:46 | -23.41242 | -43.71244 | 25384 ft | 408 kts | 254° |
| 2026-05-07 00:46 | -23.41939 | -43.74248 | 25907 ft | 410 kts | 254° |
| 2026-05-07 00:46 | -23.42639 | -43.77264 | 26438 ft | 412 kts | 254° |
| 2026-05-07 00:46 | -23.43341 | -43.80287 | 26925 ft | 415 kts | 254° |
| 2026-05-07 00:47 | -23.44048 | -43.83328 | 27402 ft | 418 kts | 254° |
| 2026-05-07 00:47 | -23.44763 | -43.86409 | 27881 ft | 420 kts | 253° |
| 2026-05-07 00:47 | -23.45475 | -43.89478 | 28339 ft | 422 kts | 253° |
| 2026-05-07 00:47 | -23.46186 | -43.92552 | 28790 ft | 425 kts | 253° |
| 2026-05-07 00:48 | -23.46912 | -43.95693 | 29254 ft | 427 kts | 253° |
| 2026-05-07 00:48 | -23.47630 | -43.98800 | 29706 ft | 428 kts | 253° |
| 2026-05-07 00:48 | -23.48358 | -44.01960 | 30017 ft | 430 kts | 253° |
| 2026-05-07 00:48 | -23.49083 | -44.05101 | 30062 ft | 429 kts | 253° |
| 2026-05-07 00:49 | -23.50535 | -44.11399 | 30072 ft | 427 kts | 252° |
| 2026-05-07 00:49 | -23.51975 | -44.17658 | 30075 ft | 427 kts | 252° |
| 2026-05-07 00:50 | -23.53405 | -44.23884 | 30076 ft | 427 kts | 252° |
| 2026-05-07 00:50 | -23.54846 | -44.30170 | 30078 ft | 426 kts | 252° |
| 2026-05-07 00:51 | -23.56272 | -44.36403 | 30076 ft | 426 kts | 252° |
| 2026-05-07 00:51 | -23.57697 | -44.42643 | 30081 ft | 425 kts | 252° |
| 2026-05-07 00:52 | -23.59123 | -44.48902 | 30081 ft | 426 kts | 252° |
| 2026-05-07 00:52 | -23.60534 | -44.55106 | 30076 ft | 424 kts | 252° |
| 2026-05-07 00:53 | -23.61952 | -44.61360 | 30085 ft | 424 kts | 252° |
| 2026-05-07 00:53 | -23.63351 | -44.67544 | 30081 ft | 424 kts | 252° |
| 2026-05-07 00:54 | -23.64749 | -44.73762 | 30081 ft | 423 kts | 252° |
| 2026-05-07 00:54 | -23.66150 | -44.79994 | 30077 ft | 423 kts | 252° |
| 2026-05-07 00:55 | -23.67544 | -44.86189 | 30078 ft | 422 kts | 252° |
| 2026-05-07 00:55 | -23.68942 | -44.92406 | 30082 ft | 422 kts | 252° |
| 2026-05-07 00:56 | -23.70336 | -44.98613 | 30082 ft | 422 kts | 252° |
| 2026-05-07 00:56 | -23.71723 | -45.04810 | 30084 ft | 421 kts | 252° |
| 2026-05-07 00:57 | -23.73103 | -45.10986 | 30078 ft | 421 kts | 252° |
| 2026-05-07 00:57 | -23.74488 | -45.17186 | 30077 ft | 421 kts | 252° |
| 2026-05-07 00:58 | -23.75172 | -45.20259 | 29677 ft | 421 kts | 252° |
| 2026-05-07 00:58 | -23.75860 | -45.23348 | 29076 ft | 418 kts | 252° |
| 2026-05-07 00:58 | -23.76543 | -45.26433 | 28518 ft | 414 kts | 252° |
| 2026-05-07 00:58 | -23.77206 | -45.29443 | 27994 ft | 410 kts | 252° |
| 2026-05-07 00:59 | -23.78525 | -45.35426 | 26971 ft | 401 kts | 252° |
| 2026-05-07 00:59 | -23.79126 | -45.38337 | 26474 ft | 398 kts | 255° |
| 2026-05-07 00:59 | -23.79582 | -45.41318 | 25974 ft | 396 kts | 258° |
| 2026-05-07 01:00 | -23.79872 | -45.44331 | 25908 ft | 405 kts | 262° |
| 2026-05-07 01:00 | -23.80048 | -45.47399 | 25931 ft | 409 kts | 263° |
| 2026-05-07 01:00 | -23.80210 | -45.50515 | 25955 ft | 410 kts | 263° |
| 2026-05-07 01:00 | -23.80366 | -45.53621 | 25975 ft | 410 kts | 263° |
| 2026-05-07 01:01 | -23.80522 | -45.56723 | 26000 ft | 410 kts | 263° |
| 2026-05-07 01:01 | -23.80680 | -45.59810 | 26020 ft | 409 kts | 263° |
| 2026-05-07 01:01 | -23.80836 | -45.62875 | 26046 ft | 410 kts | 263° |
| 2026-05-07 01:01 | -23.80995 | -45.66001 | 26065 ft | 409 kts | 263° |
| 2026-05-07 01:02 | -23.81151 | -45.69094 | 26065 ft | 409 kts | 263° |
| 2026-05-07 01:02 | -23.81305 | -45.72193 | 26049 ft | 409 kts | 263° |
| 2026-05-07 01:02 | -23.81461 | -45.75297 | 25684 ft | 410 kts | 263° |
| 2026-05-07 01:02 | -23.81617 | -45.78369 | 25101 ft | 407 kts | 263° |
| 2026-05-07 01:03 | -23.81769 | -45.81413 | 24561 ft | 404 kts | 264° |
| 2026-05-07 01:03 | -23.81920 | -45.84444 | 24037 ft | 400 kts | 264° |
| 2026-05-07 01:03 | -23.82070 | -45.87480 | 23523 ft | 396 kts | 264° |
| 2026-05-07 01:03 | -23.82217 | -45.90450 | 23029 ft | 393 kts | 264° |
| 2026-05-07 01:04 | -23.82362 | -45.93385 | 22530 ft | 390 kts | 264° |
| 2026-05-07 01:04 | -23.82507 | -45.96337 | 22037 ft | 387 kts | 264° |
| 2026-05-07 01:04 | -23.82648 | -45.99236 | 21558 ft | 384 kts | 264° |
| 2026-05-07 01:04 | -23.82791 | -46.02161 | 21078 ft | 382 kts | 264° |
| 2026-05-07 01:05 | -23.82931 | -46.05030 | 20603 ft | 380 kts | 264° |
| 2026-05-07 01:05 | -23.83070 | -46.07894 | 20131 ft | 379 kts | 265° |
| 2026-05-07 01:05 | -23.83209 | -46.10753 | 19650 ft | 378 kts | 265° |
| 2026-05-07 01:05 | -23.83346 | -46.13592 | 19181 ft | 376 kts | 265° |
| 2026-05-07 01:06 | -23.83482 | -46.16453 | 18705 ft | 375 kts | 265° |
| 2026-05-07 01:06 | -23.83616 | -46.19275 | 18233 ft | 374 kts | 265° |
| 2026-05-07 01:06 | -23.83751 | -46.22117 | 17760 ft | 373 kts | 265° |
| 2026-05-07 01:06 | -23.83882 | -46.24912 | 17298 ft | 371 kts | 265° |
| 2026-05-07 01:07 | -23.84015 | -46.27709 | 16832 ft | 370 kts | 265° |
| 2026-05-07 01:07 | -23.84146 | -46.30503 | 16353 ft | 370 kts | 265° |
| 2026-05-07 01:07 | -23.84279 | -46.33315 | 15874 ft | 369 kts | 266° |
| 2026-05-07 01:07 | -23.84410 | -46.36100 | 15393 ft | 369 kts | 266° |
| 2026-05-07 01:08 | -23.84542 | -46.38900 | 14908 ft | 368 kts | 266° |
| 2026-05-07 01:08 | -23.84672 | -46.41680 | 14436 ft | 368 kts | 266° |
| 2026-05-07 01:08 | -23.84801 | -46.44450 | 13959 ft | 367 kts | 266° |
| 2026-05-07 01:08 | -23.84931 | -46.47229 | 13477 ft | 366 kts | 266° |
| 2026-05-07 01:09 | -23.85058 | -46.49993 | 13000 ft | 366 kts | 267° |
| 2026-05-07 01:09 | -23.85184 | -46.52732 | 12527 ft | 365 kts | 267° |
| 2026-05-07 01:09 | -23.85311 | -46.55522 | 12055 ft | 363 kts | 267° |
| 2026-05-07 01:09 | -23.85434 | -46.58229 | 11589 ft | 362 kts | 267° |
| 2026-05-07 01:10 | -23.85346 | -46.60957 | 11091 ft | 359 kts | 283° |
| 2026-05-07 01:10 | -23.84276 | -46.63368 | 10659 ft | 351 kts | 311° |
| 2026-05-07 01:10 | -23.82385 | -46.64994 | 10388 ft | 338 kts | 330° |
| 2026-05-07 01:10 | -23.80405 | -46.66278 | 10237 ft | 326 kts | 330° |
| 2026-05-07 01:11 | -23.78503 | -46.67549 | 10010 ft | 319 kts | 329° |
| 2026-05-07 01:11 | -23.76605 | -46.68843 | 9476 ft | 321 kts | 329° |
| 2026-05-07 01:11 | -23.74733 | -46.70135 | 9230 ft | 313 kts | 329° |
| 2026-05-07 01:11 | -23.72948 | -46.71375 | 9201 ft | 299 kts | 329° |
| 2026-05-07 01:12 | -23.71222 | -46.72572 | 9111 ft | 288 kts | 329° |
| 2026-05-07 01:12 | -23.69505 | -46.73764 | 8614 ft | 293 kts | 329° |
| 2026-05-07 01:12 | -23.67781 | -46.74959 | 8131 ft | 292 kts | 329° |
| 2026-05-07 01:12 | -23.66100 | -46.76125 | 7701 ft | 280 kts | 329° |
| 2026-05-07 01:13 | -23.64509 | -46.77228 | 7294 ft | 267 kts | 329° |
| 2026-05-07 01:13 | -23.62969 | -46.78296 | 6956 ft | 253 kts | 330° |
| 2026-05-07 01:13 | -23.61525 | -46.79298 | 6702 ft | 243 kts | 330° |
| 2026-05-07 01:13 | -23.60109 | -46.80277 | 6449 ft | 241 kts | 329° |
| 2026-05-07 01:14 | -23.58699 | -46.81251 | 6195 ft | 240 kts | 331° |
| 2026-05-07 01:14 | -23.57137 | -46.81839 | 5912 ft | 234 kts | 3° |
| 2026-05-07 01:14 | -23.55666 | -46.81274 | 5765 ft | 222 kts | 42° |
| 2026-05-07 01:14 | -23.54756 | -46.79985 | 5745 ft | 209 kts | 59° |
| 2026-05-07 01:15 | -23.54029 | -46.78659 | 5727 ft | 197 kts | 59° |
| 2026-05-07 01:15 | -23.53353 | -46.77448 | 5669 ft | 183 kts | 58° |
| 2026-05-07 01:15 | -23.52702 | -46.76308 | 5544 ft | 169 kts | 58° |
| 2026-05-07 01:15 | -23.52103 | -46.75271 | 5351 ft | 154 kts | 58° |
| 2026-05-07 01:16 | -23.51547 | -46.74303 | 5019 ft | 148 kts | 63° |
| 2026-05-07 01:16 | -23.51439 | -46.73248 | 4665 ft | 142 kts | 110° |
| 2026-05-07 01:16 | -23.52082 | -46.72546 | 4592 ft | 131 kts | 149° |
| 2026-05-07 01:16 | -23.52915 | -46.72114 | 4526 ft | 132 kts | 153° |
| 2026-05-07 01:17 | -23.53742 | -46.71673 | 4363 ft | 131 kts | 150° |
| 2026-05-07 01:17 | -23.54547 | -46.71219 | 4204 ft | 130 kts | 149° |
| 2026-05-07 01:17 | -23.55337 | -46.70723 | 4044 ft | 129 kts | 147° |
| 2026-05-07 01:17 | -23.56096 | -46.70208 | 3885 ft | 129 kts | 146° |
| 2026-05-07 01:18 | -23.56852 | -46.69683 | 3727 ft | 128 kts | 145° |
| 2026-05-07 01:18 | -23.57602 | -46.69160 | 3570 ft | 128 kts | 146° |
| 2026-05-07 01:18 | -23.58356 | -46.68635 | 3412 ft | 128 kts | 146° |
| 2026-05-07 01:18 | -23.59115 | -46.68109 | 3252 ft | 127 kts | 146° |
| 2026-05-07 01:19 | -23.59862 | -46.67591 | 3095 ft | 127 kts | 146° |
| 2026-05-07 01:19 | -23.60608 | -46.67074 | 2939 ft | 127 kts | 146° |
| 2026-05-07 01:19 | -23.61349 | -46.66559 | 2749 ft | 127 kts | 146° |
| 2026-05-07 01:19 | -23.62088 | -46.66044 | 2605 ft | 125 kts | 147° |
| 2026-05-07 01:20 | -23.62703 | -46.65621 | 2616 ft | 64 kts | 146° |
| 2026-05-07 01:20 | -23.62869 | -46.65509 | 2620 ft | 13 kts | 160° |
| 2026-05-07 01:20 | -23.62926 | -46.65552 | 2620 ft | 11 kts | 270° |
| 2026-05-07 01:20 | -23.62883 | -46.65608 | 2619 ft | 10 kts | 326° |
| 2026-05-07 01:21 | -23.62822 | -46.65652 | 2618 ft | 10 kts | 328° |
| 2026-05-07 01:21 | -23.62753 | -46.65698 | 2616 ft | 11 kts | 330° |
| 2026-05-07 01:21 | -23.62682 | -46.65742 | 2614 ft | 12 kts | 326° |
| 2026-05-07 01:21 | -23.62659 | -46.65782 | 2612 ft | 5 kts | 248° |
| 2026-05-07 01:22 | -23.62678 | -46.65819 | 2612 ft | 5 kts | 237° |
| 2026-05-07 01:22 | -23.62690 | -46.65839 | 2613 ft | 0 kts | 238° |